sensor_id;sensor_type;location;lat;lon;timestamp;temperature;humidity
41944;DHT22;27636;52.610;13.244;2023-12-20T00:02:15;7.20;99.90
41944;DHT22;27636;52.610;13.244;2023-12-20T00:07:19;7.10;99.90
41944;DHT22;27636;52.610;13.244;2023-12-20T00:12:23;7.10;99.90
41944;DHT22;27636;52.610;13.244;2023-12-20T00:17:30;7.10;99.90
41944;DHT22;27636;52.610;13.244;2023-12-20T00:22:34;7.10;99.90
41944;DHT22;27636;52.610;13.244;2023-12-20T00:27:37;7.10;99.90
41944;DHT22;27636;52.610;13.244;2023-12-20T00:32:43;7.10;99.90
41944;DHT22;27636;52.610;13.244;2023-12-20T00:37:50;7.10;99.90
41944;DHT22;27636;52.610;13.244;2023-12-20T00:42:53;7.20;99.90
41944;DHT22;27636;52.610;13.244;2023-12-20T00:47:59;7.10;99.90
41944;DHT22;27636;52.610;13.244;2023-12-20T00:53:04;7.20;99.90
41944;DHT22;27636;52.610;13.244;2023-12-20T00:58:07;7.10;99.90
41944;DHT22;27636;52.610;13.244;2023-12-20T01:03:13;7.10;99.90
41944;DHT22;27636;52.610;13.244;2023-12-20T01:08:18;7.10;99.90
41944;DHT22;27636;52.610;13.244;2023-12-20T01:13:22;7.00;99.90
41944;DHT22;27636;52.610;13.244;2023-12-20T01:18:27;7.10;99.90
41944;DHT22;27636;52.610;13.244;2023-12-20T01:23:32;7.20;99.90
41944;DHT22;27636;52.610;13.244;2023-12-20T01:28:35;7.20;99.90
41944;DHT22;27636;52.610;13.244;2023-12-20T01:33:41;7.30;99.90
41944;DHT22;27636;52.610;13.244;2023-12-20T01:38:45;7.20;99.90
41944;DHT22;27636;52.610;13.244;2023-12-20T01:43:49;7.10;99.90
41944;DHT22;27636;52.610;13.244;2023-12-20T01:48:55;7.10;99.90
41944;DHT22;27636;52.610;13.244;2023-12-20T01:53:59;7.10;99.90
41944;DHT22;27636;52.610;13.244;2023-12-20T01:59:04;7.00;99.90
41944;DHT22;27636;52.610;13.244;2023-12-20T02:04:10;7.00;99.90
41944;DHT22;27636;52.610;13.244;2023-12-20T02:09:13;7.00;99.90
41944;DHT22;27636;52.610;13.244;2023-12-20T02:14:18;6.90;99.90
41944;DHT22;27636;52.610;13.244;2023-12-20T02:19:23;6.90;99.90
41944;DHT22;27636;52.610;13.244;2023-12-20T02:24:29;6.70;99.90
41944;DHT22;27636;52.610;13.244;2023-12-20T02:29:33;6.60;99.90
41944;DHT22;27636;52.610;13.244;2023-12-20T02:34:38;6.60;99.90
41944;DHT22;27636;52.610;13.244;2023-12-20T02:39:43;6.60;99.90
41944;DHT22;27636;52.610;13.244;2023-12-20T02:44:47;6.50;99.90
41944;DHT22;27636;52.610;13.244;2023-12-20T02:49:51;6.60;99.90
41944;DHT22;27636;52.610;13.244;2023-12-20T02:54:58;6.40;99.90
41944;DHT22;27636;52.610;13.244;2023-12-20T03:00:02;6.50;99.90
41944;DHT22;27636;52.610;13.244;2023-12-20T03:05:11;6.50;99.90
41944;DHT22;27636;52.610;13.244;2023-12-20T03:10:18;6.50;99.90
41944;DHT22;27636;52.610;13.244;2023-12-20T03:15:29;6.40;99.90
41944;DHT22;27636;52.610;13.244;2023-12-20T03:20:34;6.30;99.90
41944;DHT22;27636;52.610;13.244;2023-12-20T03:25:39;6.20;99.90
41944;DHT22;27636;52.610;13.244;2023-12-20T03:30:44;6.10;99.90
41944;DHT22;27636;52.610;13.244;2023-12-20T03:35:48;6.20;99.90
41944;DHT22;27636;52.610;13.244;2023-12-20T03:40:54;6.30;99.90
41944;DHT22;27636;52.610;13.244;2023-12-20T03:45:58;6.20;99.90
41944;DHT22;27636;52.610;13.244;2023-12-20T03:51:04;6.30;99.90
41944;DHT22;27636;52.610;13.244;2023-12-20T03:56:09;6.30;99.90
41944;DHT22;27636;52.610;13.244;2023-12-20T04:01:14;6.40;99.90
41944;DHT22;27636;52.610;13.244;2023-12-20T04:06:18;6.30;99.90
41944;DHT22;27636;52.610;13.244;2023-12-20T04:11:24;6.40;99.90
41944;DHT22;27636;52.610;13.244;2023-12-20T04:16:28;6.40;99.90
41944;DHT22;27636;52.610;13.244;2023-12-20T04:21:32;6.20;99.90
41944;DHT22;27636;52.610;13.244;2023-12-20T04:26:37;5.90;99.90
41944;DHT22;27636;52.610;13.244;2023-12-20T04:31:41;5.60;99.90
41944;DHT22;27636;52.610;13.244;2023-12-20T04:36:46;5.50;99.90
41944;DHT22;27636;52.610;13.244;2023-12-20T04:41:52;5.40;99.90
41944;DHT22;27636;52.610;13.244;2023-12-20T04:46:56;5.00;99.90
41944;DHT22;27636;52.610;13.244;2023-12-20T04:52:00;5.10;99.90
41944;DHT22;27636;52.610;13.244;2023-12-20T04:57:06;5.10;99.90
41944;DHT22;27636;52.610;13.244;2023-12-20T05:02:10;5.00;99.90
41944;DHT22;27636;52.610;13.244;2023-12-20T05:07:15;5.10;99.90
41944;DHT22;27636;52.610;13.244;2023-12-20T05:12:22;4.90;99.90
41944;DHT22;27636;52.610;13.244;2023-12-20T05:17:26;4.90;99.90
41944;DHT22;27636;52.610;13.244;2023-12-20T05:22:31;4.80;99.90
41944;DHT22;27636;52.610;13.244;2023-12-20T05:27:37;4.80;99.90
41944;DHT22;27636;52.610;13.244;2023-12-20T05:32:42;4.70;99.90
41944;DHT22;27636;52.610;13.244;2023-12-20T05:37:46;4.60;99.90
41944;DHT22;27636;52.610;13.244;2023-12-20T05:42:53;4.20;99.90
41944;DHT22;27636;52.610;13.244;2023-12-20T05:47:57;3.90;99.90
41944;DHT22;27636;52.610;13.244;2023-12-20T05:53:03;4.00;99.90
41944;DHT22;27636;52.610;13.244;2023-12-20T05:58:08;4.20;99.90
41944;DHT22;27636;52.610;13.244;2023-12-20T06:03:12;4.40;99.90
41944;DHT22;27636;52.610;13.244;2023-12-20T06:08:16;4.60;99.90
41944;DHT22;27636;52.610;13.244;2023-12-20T06:13:23;4.60;99.90
41944;DHT22;27636;52.610;13.244;2023-12-20T06:18:26;4.50;99.90
41944;DHT22;27636;52.610;13.244;2023-12-20T06:23:31;4.60;99.90
41944;DHT22;27636;52.610;13.244;2023-12-20T06:28:36;4.60;99.90
41944;DHT22;27636;52.610;13.244;2023-12-20T06:33:44;4.70;99.90
41944;DHT22;27636;52.610;13.244;2023-12-20T06:38:48;4.70;99.90
41944;DHT22;27636;52.610;13.244;2023-12-20T06:43:53;4.70;99.90
41944;DHT22;27636;52.610;13.244;2023-12-20T06:48:58;4.70;99.90
41944;DHT22;27636;52.610;13.244;2023-12-20T06:54:02;4.90;99.90
41944;DHT22;27636;52.610;13.244;2023-12-20T06:59:08;4.90;99.90
41944;DHT22;27636;52.610;13.244;2023-12-20T07:04:11;5.00;99.90
41944;DHT22;27636;52.610;13.244;2023-12-20T07:09:15;5.10;99.90
41944;DHT22;27636;52.610;13.244;2023-12-20T07:14:21;5.10;99.90
41944;DHT22;27636;52.610;13.244;2023-12-20T07:19:25;5.20;99.90
41944;DHT22;27636;52.610;13.244;2023-12-20T07:24:29;5.20;99.90
41944;DHT22;27636;52.610;13.244;2023-12-20T07:29:34;5.30;99.90
41944;DHT22;27636;52.610;13.244;2023-12-20T07:34:38;5.30;99.90
41944;DHT22;27636;52.610;13.244;2023-12-20T07:39:43;5.30;99.90
41944;DHT22;27636;52.610;13.244;2023-12-20T07:44:48;5.20;99.90
41944;DHT22;27636;52.610;13.244;2023-12-20T07:49:52;5.30;99.90
41944;DHT22;27636;52.610;13.244;2023-12-20T07:54:57;5.30;99.90
41944;DHT22;27636;52.610;13.244;2023-12-20T08:00:03;5.40;99.90
41944;DHT22;27636;52.610;13.244;2023-12-20T08:05:08;5.40;99.90
41944;DHT22;27636;52.610;13.244;2023-12-20T08:10:13;5.50;99.90
41944;DHT22;27636;52.610;13.244;2023-12-20T08:15:20;5.50;99.90
41944;DHT22;27636;52.610;13.244;2023-12-20T08:20:25;5.50;99.90
41944;DHT22;27636;52.610;13.244;2023-12-20T08:25:43;5.50;99.90
41944;DHT22;27636;52.610;13.244;2023-12-20T08:30:49;5.60;99.90
41944;DHT22;27636;52.610;13.244;2023-12-20T08:35:57;5.60;99.90
41944;DHT22;27636;52.610;13.244;2023-12-20T08:41:02;5.60;99.90
41944;DHT22;27636;52.610;13.244;2023-12-20T08:46:10;5.80;99.90
41944;DHT22;27636;52.610;13.244;2023-12-20T08:51:14;5.90;99.90
41944;DHT22;27636;52.610;13.244;2023-12-20T08:56:18;6.00;99.90
41944;DHT22;27636;52.610;13.244;2023-12-20T09:01:23;6.10;99.90
41944;DHT22;27636;52.610;13.244;2023-12-20T09:06:27;6.10;99.90
41944;DHT22;27636;52.610;13.244;2023-12-20T09:11:32;6.40;99.90
41944;DHT22;27636;52.610;13.244;2023-12-20T09:16:38;6.70;99.90
41944;DHT22;27636;52.610;13.244;2023-12-20T09:21:42;6.50;99.90
41944;DHT22;27636;52.610;13.244;2023-12-20T09:26:46;6.50;99.90
41944;DHT22;27636;52.610;13.244;2023-12-20T09:31:51;6.40;99.90
41944;DHT22;27636;52.610;13.244;2023-12-20T09:36:55;6.30;99.90
41944;DHT22;27636;52.610;13.244;2023-12-20T09:42:01;6.40;99.90
41944;DHT22;27636;52.610;13.244;2023-12-20T09:47:07;6.30;99.90
41944;DHT22;27636;52.610;13.244;2023-12-20T09:52:14;6.30;99.90
41944;DHT22;27636;52.610;13.244;2023-12-20T09:57:20;6.30;99.90
41944;DHT22;27636;52.610;13.244;2023-12-20T10:02:26;6.30;99.90
41944;DHT22;27636;52.610;13.244;2023-12-20T10:07:31;6.30;99.90
41944;DHT22;27636;52.610;13.244;2023-12-20T10:12:35;6.30;99.90
41944;DHT22;27636;52.610;13.244;2023-12-20T10:17:41;6.40;99.90
41944;DHT22;27636;52.610;13.244;2023-12-20T10:22:46;6.30;99.90
41944;DHT22;27636;52.610;13.244;2023-12-20T10:28:08;6.30;99.90
41944;DHT22;27636;52.610;13.244;2023-12-20T10:33:24;6.40;99.90
41944;DHT22;27636;52.610;13.244;2023-12-20T10:38:30;6.40;99.90
41944;DHT22;27636;52.610;13.244;2023-12-20T10:43:34;6.40;99.90
41944;DHT22;27636;52.610;13.244;2023-12-20T10:48:41;6.60;99.90
41944;DHT22;27636;52.610;13.244;2023-12-20T10:53:47;6.50;99.90
41944;DHT22;27636;52.610;13.244;2023-12-20T10:58:54;6.40;99.90
41944;DHT22;27636;52.610;13.244;2023-12-20T11:04:01;6.50;99.90
41944;DHT22;27636;52.610;13.244;2023-12-20T11:09:12;6.60;99.90
41944;DHT22;27636;52.610;13.244;2023-12-20T11:14:22;6.60;99.90
41944;DHT22;27636;52.610;13.244;2023-12-20T11:19:29;6.70;99.90
41944;DHT22;27636;52.610;13.244;2023-12-20T11:24:33;6.60;99.90
41944;DHT22;27636;52.610;13.244;2023-12-20T11:29:37;6.60;99.90
41944;DHT22;27636;52.610;13.244;2023-12-20T11:34:44;6.50;99.90
41944;DHT22;27636;52.610;13.244;2023-12-20T11:39:53;6.50;99.90
41944;DHT22;27636;52.610;13.244;2023-12-20T11:44:57;6.50;99.90
41944;DHT22;27636;52.610;13.244;2023-12-20T11:50:02;6.60;99.90
41944;DHT22;27636;52.610;13.244;2023-12-20T11:55:08;6.80;99.90
41944;DHT22;27636;52.610;13.244;2023-12-20T12:00:13;7.00;99.90
41944;DHT22;27636;52.610;13.244;2023-12-20T12:05:19;7.10;99.90
41944;DHT22;27636;52.610;13.244;2023-12-20T12:10:23;6.90;99.90
41944;DHT22;27636;52.610;13.244;2023-12-20T12:15:29;6.90;99.90
41944;DHT22;27636;52.610;13.244;2023-12-20T12:20:34;6.90;99.90
41944;DHT22;27636;52.610;13.244;2023-12-20T12:25:41;6.70;99.90
41944;DHT22;27636;52.610;13.244;2023-12-20T12:30:56;6.50;99.90
41944;DHT22;27636;52.610;13.244;2023-12-20T12:36:02;6.40;99.90
41944;DHT22;27636;52.610;13.244;2023-12-20T12:41:08;6.30;99.90
41944;DHT22;27636;52.610;13.244;2023-12-20T12:46:14;6.30;99.90
41944;DHT22;27636;52.610;13.244;2023-12-20T12:51:19;6.20;99.90
41944;DHT22;27636;52.610;13.244;2023-12-20T12:56:23;6.20;99.90
41944;DHT22;27636;52.610;13.244;2023-12-20T13:01:27;6.30;99.90
41944;DHT22;27636;52.610;13.244;2023-12-20T13:06:33;6.20;99.90
41944;DHT22;27636;52.610;13.244;2023-12-20T13:11:37;6.30;99.90
41944;DHT22;27636;52.610;13.244;2023-12-20T13:16:41;6.20;99.90
41944;DHT22;27636;52.610;13.244;2023-12-20T13:21:46;6.20;99.90
41944;DHT22;27636;52.610;13.244;2023-12-20T13:26:50;6.10;99.90
41944;DHT22;27636;52.610;13.244;2023-12-20T13:31:54;6.10;99.90
41944;DHT22;27636;52.610;13.244;2023-12-20T13:37:00;6.00;99.90
41944;DHT22;27636;52.610;13.244;2023-12-20T13:42:05;6.00;99.90
41944;DHT22;27636;52.610;13.244;2023-12-20T13:47:09;6.10;99.90
41944;DHT22;27636;52.610;13.244;2023-12-20T13:52:14;5.90;99.90
41944;DHT22;27636;52.610;13.244;2023-12-20T13:57:18;5.70;99.90
41944;DHT22;27636;52.610;13.244;2023-12-20T14:02:42;5.60;99.90
41944;DHT22;27636;52.610;13.244;2023-12-20T14:07:47;5.60;99.90
41944;DHT22;27636;52.610;13.244;2023-12-20T14:12:52;5.40;99.90
41944;DHT22;27636;52.610;13.244;2023-12-20T14:17:56;5.30;99.90
41944;DHT22;27636;52.610;13.244;2023-12-20T14:23:01;5.50;99.90
41944;DHT22;27636;52.610;13.244;2023-12-20T14:28:05;5.50;99.90
41944;DHT22;27636;52.610;13.244;2023-12-20T14:33:09;5.50;99.90
41944;DHT22;27636;52.610;13.244;2023-12-20T14:38:15;5.50;99.90
41944;DHT22;27636;52.610;13.244;2023-12-20T14:43:19;5.30;99.90
41944;DHT22;27636;52.610;13.244;2023-12-20T14:48:22;5.30;99.90
41944;DHT22;27636;52.610;13.244;2023-12-20T14:53:28;5.40;99.90
41944;DHT22;27636;52.610;13.244;2023-12-20T14:58:32;5.30;99.90
41944;DHT22;27636;52.610;13.244;2023-12-20T15:03:37;5.30;99.90
41944;DHT22;27636;52.610;13.244;2023-12-20T15:08:45;5.30;99.90
41944;DHT22;27636;52.610;13.244;2023-12-20T15:13:49;5.40;99.90
41944;DHT22;27636;52.610;13.244;2023-12-20T15:18:59;5.50;99.90
41944;DHT22;27636;52.610;13.244;2023-12-20T15:24:05;5.40;99.90
41944;DHT22;27636;52.610;13.244;2023-12-20T15:29:10;5.20;99.90
41944;DHT22;27636;52.610;13.244;2023-12-20T15:34:15;4.90;99.90
41944;DHT22;27636;52.610;13.244;2023-12-20T15:39:23;4.70;99.90
41944;DHT22;27636;52.610;13.244;2023-12-20T15:44:27;4.50;99.90
41944;DHT22;27636;52.610;13.244;2023-12-20T15:49:31;4.50;99.90
41944;DHT22;27636;52.610;13.244;2023-12-20T15:54:36;4.40;99.90
41944;DHT22;27636;52.610;13.244;2023-12-20T15:59:42;4.20;99.90
41944;DHT22;27636;52.610;13.244;2023-12-20T16:04:46;4.30;99.90
41944;DHT22;27636;52.610;13.244;2023-12-20T16:09:52;4.20;99.90
41944;DHT22;27636;52.610;13.244;2023-12-20T16:14:56;4.40;99.90
41944;DHT22;27636;52.610;13.244;2023-12-20T16:20:00;4.40;99.90
41944;DHT22;27636;52.610;13.244;2023-12-20T16:25:07;4.40;99.90
41944;DHT22;27636;52.610;13.244;2023-12-20T16:30:11;4.30;99.90
41944;DHT22;27636;52.610;13.244;2023-12-20T16:35:15;4.20;99.90
41944;DHT22;27636;52.610;13.244;2023-12-20T16:40:20;4.20;99.90
41944;DHT22;27636;52.610;13.244;2023-12-20T16:45:28;4.30;99.90
41944;DHT22;27636;52.610;13.244;2023-12-20T16:50:32;4.10;99.90
41944;DHT22;27636;52.610;13.244;2023-12-20T16:55:38;4.20;99.90
41944;DHT22;27636;52.610;13.244;2023-12-20T17:00:42;4.20;99.90
41944;DHT22;27636;52.610;13.244;2023-12-20T17:05:46;4.10;99.90
41944;DHT22;27636;52.610;13.244;2023-12-20T17:10:52;4.10;99.90
41944;DHT22;27636;52.610;13.244;2023-12-20T17:15:56;4.20;99.90
41944;DHT22;27636;52.610;13.244;2023-12-20T17:21:00;4.10;99.90
41944;DHT22;27636;52.610;13.244;2023-12-20T17:26:07;4.20;99.90
41944;DHT22;27636;52.610;13.244;2023-12-20T17:31:11;4.30;99.90
41944;DHT22;27636;52.610;13.244;2023-12-20T17:36:16;4.20;99.90
41944;DHT22;27636;52.610;13.244;2023-12-20T17:41:22;4.30;99.90
41944;DHT22;27636;52.610;13.244;2023-12-20T17:46:26;4.40;99.90
41944;DHT22;27636;52.610;13.244;2023-12-20T17:51:30;4.50;99.90
41944;DHT22;27636;52.610;13.244;2023-12-20T17:56:36;4.60;99.90
41944;DHT22;27636;52.610;13.244;2023-12-20T18:01:39;4.80;99.90
41944;DHT22;27636;52.610;13.244;2023-12-20T18:06:44;4.90;99.90
41944;DHT22;27636;52.610;13.244;2023-12-20T18:11:49;5.00;99.90
41944;DHT22;27636;52.610;13.244;2023-12-20T18:16:54;4.90;99.90
41944;DHT22;27636;52.610;13.244;2023-12-20T18:21:58;5.00;99.90
41944;DHT22;27636;52.610;13.244;2023-12-20T18:27:04;5.00;99.90
41944;DHT22;27636;52.610;13.244;2023-12-20T18:32:07;5.10;99.90
41944;DHT22;27636;52.610;13.244;2023-12-20T18:37:12;5.00;99.90
41944;DHT22;27636;52.610;13.244;2023-12-20T18:42:17;4.90;99.90
41944;DHT22;27636;52.610;13.244;2023-12-20T18:47:22;5.00;99.90
41944;DHT22;27636;52.610;13.244;2023-12-20T18:52:25;5.10;99.90
41944;DHT22;27636;52.610;13.244;2023-12-20T18:57:32;5.10;99.90
41944;DHT22;27636;52.610;13.244;2023-12-20T19:02:36;5.20;99.90
41944;DHT22;27636;52.610;13.244;2023-12-20T19:07:41;5.30;99.90
41944;DHT22;27636;52.610;13.244;2023-12-20T19:12:47;5.30;99.90
41944;DHT22;27636;52.610;13.244;2023-12-20T19:17:51;5.30;99.90
41944;DHT22;27636;52.610;13.244;2023-12-20T19:22:55;5.20;99.90
41944;DHT22;27636;52.610;13.244;2023-12-20T19:28:00;5.20;99.90
41944;DHT22;27636;52.610;13.244;2023-12-20T19:33:04;5.20;99.90
41944;DHT22;27636;52.610;13.244;2023-12-20T19:38:08;5.20;99.90
41944;DHT22;27636;52.610;13.244;2023-12-20T19:43:13;5.20;99.90
41944;DHT22;27636;52.610;13.244;2023-12-20T19:48:17;5.30;99.90
41944;DHT22;27636;52.610;13.244;2023-12-20T19:53:22;5.30;99.90
41944;DHT22;27636;52.610;13.244;2023-12-20T19:58:31;5.30;99.90
41944;DHT22;27636;52.610;13.244;2023-12-20T20:03:36;5.30;99.90
41944;DHT22;27636;52.610;13.244;2023-12-20T20:08:40;5.30;99.90
41944;DHT22;27636;52.610;13.244;2023-12-20T20:13:46;5.20;99.90
41944;DHT22;27636;52.610;13.244;2023-12-20T20:18:49;5.30;99.90
41944;DHT22;27636;52.610;13.244;2023-12-20T20:23:54;5.20;99.90
41944;DHT22;27636;52.610;13.244;2023-12-20T20:28:59;5.10;99.90
41944;DHT22;27636;52.610;13.244;2023-12-20T20:34:06;5.20;99.90
41944;DHT22;27636;52.610;13.244;2023-12-20T20:39:11;5.20;99.90
41944;DHT22;27636;52.610;13.244;2023-12-20T20:44:17;5.20;99.90
41944;DHT22;27636;52.610;13.244;2023-12-20T20:49:21;5.20;99.90
41944;DHT22;27636;52.610;13.244;2023-12-20T20:54:28;5.10;99.90
41944;DHT22;27636;52.610;13.244;2023-12-20T20:59:34;5.20;99.90
41944;DHT22;27636;52.610;13.244;2023-12-20T21:04:38;5.20;99.90
41944;DHT22;27636;52.610;13.244;2023-12-20T21:09:42;5.20;99.90
41944;DHT22;27636;52.610;13.244;2023-12-20T21:14:47;5.20;99.90
41944;DHT22;27636;52.610;13.244;2023-12-20T21:19:51;5.10;99.90
41944;DHT22;27636;52.610;13.244;2023-12-20T21:24:55;5.20;99.90
41944;DHT22;27636;52.610;13.244;2023-12-20T21:30:00;5.00;99.90
41944;DHT22;27636;52.610;13.244;2023-12-20T21:35:06;5.00;99.90
41944;DHT22;27636;52.610;13.244;2023-12-20T21:40:11;5.00;99.90
41944;DHT22;27636;52.610;13.244;2023-12-20T21:45:17;4.90;99.90
41944;DHT22;27636;52.610;13.244;2023-12-20T21:50:21;4.80;99.90
41944;DHT22;27636;52.610;13.244;2023-12-20T21:55:25;4.80;99.90
41944;DHT22;27636;52.610;13.244;2023-12-20T22:00:32;4.80;99.90
41944;DHT22;27636;52.610;13.244;2023-12-20T22:05:37;4.70;99.90
41944;DHT22;27636;52.610;13.244;2023-12-20T22:10:43;4.70;99.90
41944;DHT22;27636;52.610;13.244;2023-12-20T22:15:48;4.70;99.90
41944;DHT22;27636;52.610;13.244;2023-12-20T22:20:53;4.70;99.90
41944;DHT22;27636;52.610;13.244;2023-12-20T22:25:57;4.70;99.90
41944;DHT22;27636;52.610;13.244;2023-12-20T22:31:03;4.70;99.90
41944;DHT22;27636;52.610;13.244;2023-12-20T22:36:07;4.60;99.90
41944;DHT22;27636;52.610;13.244;2023-12-20T22:41:12;4.60;99.90
41944;DHT22;27636;52.610;13.244;2023-12-20T22:46:18;4.60;99.90
41944;DHT22;27636;52.610;13.244;2023-12-20T22:51:23;4.50;99.90
41944;DHT22;27636;52.610;13.244;2023-12-20T22:56:26;4.50;99.90
41944;DHT22;27636;52.610;13.244;2023-12-20T23:01:32;4.40;99.90
41944;DHT22;27636;52.610;13.244;2023-12-20T23:06:37;4.40;99.90
41944;DHT22;27636;52.610;13.244;2023-12-20T23:11:42;4.30;99.90
41944;DHT22;27636;52.610;13.244;2023-12-20T23:16:47;4.30;99.90
41944;DHT22;27636;52.610;13.244;2023-12-20T23:21:52;4.40;99.90
41944;DHT22;27636;52.610;13.244;2023-12-20T23:26:56;4.30;99.90
41944;DHT22;27636;52.610;13.244;2023-12-20T23:32:02;4.30;99.90
41944;DHT22;27636;52.610;13.244;2023-12-20T23:37:07;4.40;99.90
41944;DHT22;27636;52.610;13.244;2023-12-20T23:42:11;4.50;99.90
41944;DHT22;27636;52.610;13.244;2023-12-20T23:47:19;4.40;99.90
41944;DHT22;27636;52.610;13.244;2023-12-20T23:52:23;4.50;99.90
41944;DHT22;27636;52.610;13.244;2023-12-20T23:57:27;4.50;99.90
